createdAt,value
2018-11-28T00:02:18.449Z,70.70
2018-11-28T00:04:49.404Z,65.37
2018-11-28T00:07:20.265Z,62.85
2018-11-28T00:09:50.220Z,61.15
2018-11-28T00:12:20.165Z,59.58
2018-11-28T00:14:50.008Z,71.20
2018-11-28T00:17:21.537Z,67.72
2018-11-28T00:19:52.397Z,63.65
2018-11-28T00:22:24.317Z,64.20
2018-11-28T00:24:55.277Z,60.60
2018-11-28T00:27:25.257Z,61.90
2018-11-28T00:29:58.508Z,67.53
2018-11-28T00:32:28.437Z,58.30
2018-11-28T00:34:59.412Z,63.42
2018-11-28T00:37:31.358Z,62.20
2018-11-28T00:40:02.266Z,59.83
2018-11-28T00:42:40.124Z,58.38
2018-11-28T00:45:16.511Z,51.88
2018-11-28T00:47:48.572Z,54.77
2018-11-28T00:50:27.482Z,57.20
2018-11-28T00:52:59.385Z,52.53
2018-11-28T00:55:31.268Z,60.43
2018-11-28T00:58:05.188Z,65.30
2018-11-28T01:00:38.884Z,68.30
2018-11-28T01:03:12.028Z,67.65
2018-11-28T01:05:41.940Z,62.08
2018-11-28T01:08:18.600Z,58.63
2018-11-28T01:10:48.820Z,56.58
2018-11-28T01:13:18.796Z,58.58
2018-11-28T01:15:49.728Z,56.98
2018-11-28T01:18:23.109Z,64.42
2018-11-28T01:20:53.124Z,57.78
2018-11-28T01:23:24.036Z,60.92
2018-11-28T01:25:59.508Z,62.95
2018-11-28T01:28:30.372Z,64.40
2018-11-28T01:31:02.448Z,69.42
2018-11-28T01:33:34.352Z,65.40
2018-11-28T01:36:05.656Z,62.20
2018-11-28T01:38:39.080Z,75.72
2018-11-28T01:41:09.036Z,80.40
2018-11-28T01:43:38.912Z,59.45
2018-11-28T01:46:08.800Z,64.65
2018-11-28T01:48:38.657Z,71.97
2018-11-28T01:51:08.897Z,70.20
2018-11-28T01:53:45.269Z,74.77
2018-11-28T01:56:15.467Z,68.22
2018-11-28T01:58:45.413Z,66.82
2018-11-28T02:01:15.425Z,76.77
2018-11-28T02:03:45.336Z,66.53
2018-11-28T02:06:17.320Z,75.42
2018-11-28T02:08:48.206Z,63.85
2018-11-28T02:11:18.213Z,67.08
2018-11-28T02:13:49.188Z,64.05
2018-11-28T02:16:21.417Z,67.72
2018-11-28T02:18:51.332Z,73.07
2018-11-28T02:21:22.276Z,90.97
2018-11-28T02:23:52.225Z,65.55
2018-11-28T02:26:27.140Z,72.95
2018-11-28T02:28:59.144Z,71.97
2018-11-28T02:31:29.148Z,74.70
2018-11-28T02:34:00.060Z,86.70
2018-11-28T02:36:29.996Z,84.77
2018-11-28T02:38:59.857Z,85.53
2018-11-28T02:41:30.856Z,89.95
2018-11-28T02:44:07.305Z,92.80
2018-11-28T02:46:38.462Z,94.67
2018-11-28T02:49:13.807Z,97.10
2018-11-28T02:51:44.741Z,85.07
2018-11-28T02:54:22.221Z,104.75
2018-11-28T02:56:55.528Z,98.82
2018-11-28T02:59:26.431Z,92.37
2018-11-28T03:04:29.101Z,107.83
2018-11-28T03:06:59.153Z,110.40
2018-11-28T03:09:29.045Z,106.78
2018-11-28T03:12:00.405Z,104.67
2018-11-28T03:14:31.361Z,112.65
2018-11-28T03:17:01.290Z,106.50
2018-11-28T03:19:31.189Z,122.05
2018-11-28T03:22:02.116Z,104.03
2018-11-28T03:24:32.035Z,99.67
2018-11-28T03:27:02.233Z,109.75
2018-11-28T03:29:33.249Z,103.90
2018-11-28T03:32:05.288Z,112.12
2018-11-28T03:34:36.241Z,103.97
2018-11-28T03:37:10.865Z,109.05
2018-11-28T03:39:41.502Z,106.70
2018-11-28T03:42:13.761Z,105.50
2018-11-28T03:44:43.778Z,109.17
2018-11-28T03:47:14.293Z,103.02
2018-11-28T03:49:44.221Z,111.08
2018-11-28T03:52:14.585Z,102.53
2018-11-28T03:54:45.590Z,105.17
2018-11-28T03:57:16.841Z,112.85
2018-11-28T03:59:49.304Z,102.62
2018-11-28T04:02:19.416Z,110.48
2018-11-28T04:04:55.833Z,97.15
2018-11-28T04:07:26.626Z,84.52
2018-11-28T04:09:57.485Z,101.22
2018-11-28T04:12:29.406Z,89.22
2018-11-28T04:15:01.675Z,90.47
2018-11-28T04:17:38.591Z,107.37
2018-11-28T04:20:12.499Z,100.35
2018-11-28T04:22:48.105Z,87.22
2018-11-28T04:25:21.574Z,99.60
2018-11-28T04:27:52.183Z,88.50
2018-11-28T04:30:23.849Z,92.35
2018-11-28T04:32:56.853Z,91.78
2018-11-28T04:35:29.795Z,111.97
2018-11-28T04:37:59.790Z,81.97
2018-11-28T04:40:29.657Z,79.87
2018-11-28T04:43:05.769Z,75.12
2018-11-28T04:45:35.766Z,77.87
2018-11-28T04:48:13.789Z,94.20
2018-11-28T04:50:49.454Z,73.28
2018-11-28T04:53:21.350Z,75.60
2018-11-28T04:55:52.289Z,61.85
2018-11-28T04:58:25.258Z,82.72
2018-11-28T05:00:55.161Z,86.80
2018-11-28T05:03:25.098Z,79.75
2018-11-28T05:06:05.957Z,73.22
2018-11-28T05:08:36.401Z,77.90
2018-11-28T05:11:08.630Z,85.42
2018-11-28T05:13:38.570Z,85.83
2018-11-28T05:16:08.666Z,81.87
2018-11-28T05:18:38.674Z,85.32
2018-11-28T05:21:08.703Z,74.77
2018-11-28T05:23:42.165Z,72.47
2018-11-28T05:26:14.309Z,68.60
2018-11-28T05:28:48.150Z,79.70
2018-11-28T05:31:18.145Z,74.95
2018-11-28T05:33:49.145Z,76.17
2018-11-28T05:36:21.353Z,82.80
2018-11-28T05:38:53.306Z,75.65
2018-11-28T05:41:23.233Z,77.42
2018-11-28T05:43:58.709Z,75.80
2018-11-28T05:46:30.577Z,83.55
2018-11-28T05:49:01.521Z,67.12
2018-11-28T05:51:33.521Z,70.00
2018-11-28T05:54:06.833Z,74.92
2018-11-28T05:56:44.183Z,70.90
2018-11-28T05:59:15.122Z,72.92
2018-11-28T06:01:45.037Z,63.85
2018-11-28T06:04:14.917Z,65.15
2018-11-28T06:06:46.809Z,67.80
2018-11-28T06:09:28.790Z,68.50
2018-11-28T06:12:04.426Z,65.25
2018-11-28T06:14:37.210Z,68.65
2018-11-28T06:17:07.131Z,75.03
2018-11-28T06:19:37.013Z,71.33
2018-11-28T06:22:17.209Z,64.40
2018-11-28T06:24:48.105Z,65.90
2018-11-28T06:27:18.038Z,57.80
2018-11-28T06:29:58.934Z,66.65
2018-11-28T06:32:29.829Z,68.25
2018-11-28T06:35:00.680Z,69.00
2018-11-28T06:37:30.614Z,65.80
2018-11-28T06:40:01.514Z,66.33
2018-11-28T06:42:32.402Z,58.52
2018-11-28T06:45:04.653Z,72.42
2018-11-28T06:47:46.974Z,74.07
2018-11-28T06:50:20.134Z,67.67
2018-11-28T06:52:51.932Z,58.60
2018-11-28T06:55:23.139Z,56.15
2018-11-28T06:57:57.249Z,58.02
2018-11-28T07:00:29.162Z,61.77
2018-11-28T07:03:01.025Z,64.15
2018-11-28T07:05:30.885Z,65.42
2018-11-28T07:08:07.054Z,57.78
2018-11-28T07:10:40.181Z,67.45
2018-11-28T07:13:13.922Z,60.58
2018-11-28T07:15:46.925Z,54.58
2018-11-28T07:18:33.721Z,64.25
2018-11-28T07:21:03.667Z,60.95
2018-11-28T07:23:34.569Z,62.38
2018-11-28T07:26:08.413Z,57.38
2018-11-28T07:28:42.569Z,61.70
2018-11-28T07:31:12.453Z,58.75
2018-11-28T07:33:42.353Z,64.55
2018-11-28T07:36:12.281Z,65.05
2018-11-28T07:38:44.309Z,58.65
2018-11-28T07:41:19.721Z,54.33
2018-11-28T07:43:49.693Z,61.37
2018-11-28T07:46:20.514Z,56.00
2018-11-28T07:48:51.497Z,64.30
2018-11-28T07:51:21.377Z,56.88
2018-11-28T07:53:57.013Z,56.20
2018-11-28T07:56:30.485Z,58.90
2018-11-28T07:59:23.377Z,51.13
2018-11-28T08:01:57.809Z,57.45
2018-11-28T08:04:29.829Z,53.28
2018-11-28T08:06:59.673Z,52.15
2018-11-28T08:09:29.942Z,51.20
2018-11-28T08:12:00.086Z,58.45
2018-11-28T08:14:40.398Z,48.10
2018-11-28T08:17:24.669Z,51.40
2018-11-28T08:19:57.866Z,43.68
2018-11-28T08:22:28.730Z,49.48
2018-11-28T08:24:59.706Z,45.48
2018-11-28T08:27:29.970Z,40.23
2018-11-28T08:30:03.434Z,42.88
2018-11-28T08:32:33.398Z,44.03
2018-11-28T08:35:07.286Z,43.87
2018-11-28T08:37:38.219Z,38.48
2018-11-28T08:40:22.314Z,43.70
2018-11-28T08:42:57.665Z,44.73
2018-11-28T08:45:28.522Z,38.85
2018-11-28T08:47:59.780Z,44.70
2018-11-28T08:50:40.264Z,45.95
2018-11-28T08:53:16.978Z,45.85
2018-11-28T08:55:59.902Z,39.88
2018-11-28T08:58:30.815Z,41.77
2018-11-28T09:01:06.671Z,42.27
2018-11-28T09:06:21.683Z,43.75
2018-11-28T09:09:07.019Z,39.78
2018-11-28T09:11:36.927Z,41.33
2018-11-28T09:14:06.891Z,41.25
2018-11-28T09:16:40.316Z,45.10
2018-11-28T09:19:11.162Z,43.08
2018-11-28T09:21:41.999Z,36.63
2018-11-28T09:24:11.907Z,43.00
2018-11-28T09:26:41.839Z,43.05
2018-11-28T09:29:12.735Z,47.73
2018-11-28T09:31:43.593Z,41.60
2018-11-28T09:34:18.819Z,43.33
2018-11-28T09:36:51.819Z,41.15
2018-11-28T09:39:21.755Z,36.15
2018-11-28T09:41:54.903Z,43.45
2018-11-28T09:44:24.703Z,39.18
2018-11-28T09:46:56.543Z,43.83
2018-11-28T09:49:28.379Z,39.00
2018-11-28T09:51:58.311Z,41.73
2018-11-28T09:54:28.154Z,36.75
2018-11-28T09:56:58.008Z,39.65
2018-11-28T09:59:27.915Z,33.73
2018-11-28T10:01:57.867Z,35.65
2018-11-28T10:04:29.826Z,36.65
2018-11-28T10:07:05.747Z,33.00
2018-11-28T10:09:56.267Z,30.90
2018-11-28T10:12:28.140Z,30.75
2018-11-28T10:15:17.149Z,28.45
2018-11-28T10:17:57.219Z,30.25
2018-11-28T10:20:27.148Z,28.40
2018-11-28T10:23:20.656Z,31.50
2018-11-28T10:25:50.527Z,30.55
2018-11-28T10:28:20.456Z,31.95
2018-11-28T10:30:50.379Z,31.45
2018-11-28T10:33:20.334Z,31.07
2018-11-28T10:35:54.140Z,30.23
2018-11-28T10:38:24.071Z,30.05
2018-11-28T10:41:02.424Z,27.17
2018-11-28T10:43:46.776Z,29.40
2018-11-28T10:46:17.656Z,29.23
2018-11-28T10:48:49.616Z,29.80
2018-11-28T10:51:27.028Z,29.25
2018-11-28T10:54:01.384Z,27.17
2018-11-28T10:56:40.788Z,28.65
2018-11-28T10:59:10.708Z,26.93
2018-11-28T11:01:47.792Z,31.17
2018-11-28T11:04:23.872Z,31.35
2018-11-28T11:07:13.260Z,28.90
2018-11-28T11:09:52.436Z,25.80
2018-11-28T11:12:28.612Z,25.00
2018-11-28T11:15:02.705Z,27.70
2018-11-28T11:17:32.658Z,24.00
2018-11-28T11:20:16.472Z,27.32
2018-11-28T11:23:02.300Z,29.25
2018-11-28T11:25:45.951Z,25.70
2018-11-28T11:28:16.856Z,22.15
2018-11-28T11:30:53.569Z,26.02
2018-11-28T11:33:27.800Z,29.50
2018-11-28T11:36:07.296Z,24.00
2018-11-28T11:38:42.820Z,22.48
2018-11-28T11:41:13.898Z,21.15
2018-11-28T11:43:47.560Z,22.98
2018-11-28T11:46:18.544Z,21.80
2018-11-28T11:48:50.368Z,22.55
2018-11-28T11:51:20.266Z,20.62
2018-11-28T11:53:51.212Z,19.23
2018-11-28T11:56:23.056Z,17.85
2018-11-28T11:58:53.868Z,18.85
2018-11-28T12:01:23.821Z,14.63
2018-11-28T12:03:53.741Z,15.83
2018-11-28T12:06:23.677Z,17.05
2018-11-28T12:08:53.448Z,20.92
2018-11-28T12:11:27.688Z,20.30
2018-11-28T12:14:01.672Z,16.48
2018-11-28T12:16:33.533Z,19.70
2018-11-28T12:19:06.712Z,17.60
2018-11-28T12:21:38.533Z,19.20
2018-11-28T12:24:08.348Z,18.65
2018-11-28T12:26:39.271Z,20.85
2018-11-28T12:29:09.080Z,18.65
2018-11-28T12:31:38.960Z,17.48
2018-11-28T12:34:08.820Z,18.48
2018-11-28T12:36:45.360Z,20.43
2018-11-28T12:41:54.016Z,19.73
2018-11-28T12:44:24.920Z,22.42
2018-11-28T12:47:00.256Z,21.73
2018-11-28T12:49:30.140Z,20.37
2018-11-28T12:52:11.564Z,19.82
2018-11-28T12:54:41.473Z,15.83
2018-11-28T12:57:13.304Z,20.17
2018-11-28T12:59:44.144Z,19.95
2018-11-28T13:02:14.984Z,17.55
2018-11-28T13:04:44.904Z,18.15
2018-11-28T13:07:14.800Z,17.55
2018-11-28T13:09:48.359Z,21.60
2018-11-28T13:12:20.260Z,24.18
2018-11-28T13:14:50.204Z,24.40
2018-11-28T13:17:20.108Z,20.52
2018-11-28T13:19:50.921Z,19.85
2018-11-28T13:22:28.462Z,21.45
2018-11-28T13:24:58.288Z,19.00
2018-11-28T13:27:28.191Z,21.82
2018-11-28T13:29:58.712Z,23.90
2018-11-28T13:32:28.655Z,23.40
2018-11-28T13:34:59.576Z,28.87
2018-11-28T13:37:29.481Z,29.55
2018-11-28T13:40:09.315Z,30.25
2018-11-28T13:42:42.605Z,31.33
2018-11-28T13:45:17.001Z,27.25
2018-11-28T13:47:51.348Z,27.42
2018-11-28T13:50:21.256Z,28.42
2018-11-28T13:52:54.276Z,30.25
2018-11-28T13:58:28.760Z,27.65
2018-11-28T14:01:02.169Z,30.27
2018-11-28T14:03:32.128Z,34.05
2018-11-28T14:06:21.212Z,33.20
2018-11-28T14:08:56.496Z,34.75
2018-11-28T14:11:27.440Z,29.82
2018-11-28T14:13:58.448Z,33.28
2018-11-28T14:16:28.264Z,33.95
2018-11-28T14:19:04.576Z,34.95
2018-11-28T14:21:34.636Z,34.92
2018-11-28T14:24:07.840Z,38.13
2018-11-28T14:26:38.708Z,40.52
2018-11-28T14:29:08.608Z,31.95
2018-11-28T14:31:43.368Z,35.78
2018-11-28T14:34:15.276Z,35.55
2018-11-28T14:36:47.209Z,36.23
2018-11-28T14:39:18.120Z,42.75
2018-11-28T14:41:52.840Z,35.80
2018-11-28T14:44:22.745Z,37.03
2018-11-28T14:46:55.977Z,32.67
2018-11-28T14:49:26.784Z,37.20
2018-11-28T14:51:56.765Z,29.25
2018-11-28T14:54:27.763Z,33.60
2018-11-28T14:56:59.720Z,31.10
2018-11-28T14:59:41.536Z,32.15
2018-11-28T15:02:21.112Z,35.15
2018-11-28T15:04:52.040Z,38.05
2018-11-28T15:07:27.644Z,39.38
2018-11-28T15:09:58.949Z,39.40
2018-11-28T15:12:32.396Z,38.42
2018-11-28T15:15:04.382Z,36.05
2018-11-28T15:17:36.276Z,43.48
2018-11-28T15:20:08.969Z,35.35
2018-11-28T15:22:58.549Z,38.23
2018-11-28T15:25:40.264Z,40.88
2018-11-28T15:28:10.132Z,42.88
2018-11-28T15:30:44.544Z,50.52
2018-11-28T15:33:20.941Z,40.83
2018-11-28T15:35:54.712Z,46.15
2018-11-28T15:38:26.584Z,37.90
2018-11-28T15:40:57.560Z,46.92
2018-11-28T15:43:27.412Z,46.10
2018-11-28T15:46:01.879Z,48.80
2018-11-28T15:48:33.844Z,43.33
2018-11-28T15:51:11.117Z,50.12
2018-11-28T15:53:42.056Z,50.05
2018-11-28T15:56:17.974Z,49.88
2018-11-28T15:58:47.893Z,52.75
2018-11-28T16:01:17.772Z,50.78
2018-11-28T16:03:47.728Z,54.42
2018-11-28T16:06:21.028Z,49.73
2018-11-28T16:08:55.273Z,54.10
2018-11-28T16:11:25.444Z,51.70
2018-11-28T16:14:00.164Z,53.65
2018-11-28T16:16:43.917Z,67.12
2018-11-28T16:19:13.736Z,67.05
2018-11-28T16:21:43.652Z,53.20
2018-11-28T16:24:14.573Z,58.38
2018-11-28T16:26:44.508Z,64.05
2018-11-28T16:29:24.663Z,56.63
2018-11-28T16:31:55.652Z,66.77
2018-11-28T16:34:25.584Z,69.07
2018-11-28T16:36:57.446Z,50.43
2018-11-28T16:39:28.292Z,57.25
2018-11-28T16:42:11.481Z,62.58
2018-11-28T16:44:42.416Z,66.67
2018-11-28T16:47:12.373Z,58.92
2018-11-28T16:49:43.216Z,66.02
2018-11-28T16:52:13.118Z,62.58
2018-11-28T16:54:42.944Z,62.95
2018-11-28T16:57:12.800Z,63.40
2018-11-28T16:59:50.984Z,68.72
2018-11-28T17:02:25.456Z,70.22
2018-11-28T17:04:57.328Z,59.63
2018-11-28T17:07:27.180Z,62.13
2018-11-28T17:09:58.105Z,63.42
2018-11-28T17:12:27.916Z,70.78
2018-11-28T17:15:03.636Z,67.00
2018-11-28T17:17:36.543Z,61.90
2018-11-28T17:20:11.123Z,66.33
2018-11-28T17:22:41.160Z,78.83
2018-11-28T17:25:23.700Z,74.82
2018-11-28T17:27:58.416Z,74.47
2018-11-28T17:30:29.656Z,65.42
2018-11-28T17:33:03.280Z,64.10
2018-11-28T17:35:38.644Z,67.12
2018-11-28T17:38:10.572Z,75.92
2018-11-28T17:40:40.487Z,76.92
2018-11-28T17:43:11.364Z,82.60
2018-11-28T17:45:41.333Z,84.25
2018-11-28T17:48:12.277Z,81.82
2018-11-28T17:50:42.160Z,79.60
2018-11-28T17:53:13.665Z,72.40
2018-11-28T17:55:46.980Z,82.92
2018-11-28T17:58:16.936Z,62.78
2018-11-28T18:00:46.908Z,78.33
2018-11-28T18:03:19.363Z,80.50
2018-11-28T18:05:59.008Z,76.15
2018-11-28T18:08:36.156Z,70.45
2018-11-28T18:11:13.831Z,77.03
2018-11-28T18:13:47.770Z,75.20
2018-11-28T18:16:18.700Z,69.72
2018-11-28T18:18:58.955Z,70.85
2018-11-28T18:21:33.321Z,86.87
2018-11-28T18:24:05.480Z,86.82
2018-11-28T18:26:36.496Z,75.32
2018-11-28T18:29:07.499Z,70.75
2018-11-28T18:31:45.184Z,74.47
2018-11-28T18:34:17.269Z,62.98
2018-11-28T18:36:47.273Z,66.00
2018-11-28T18:39:20.627Z,76.00
2018-11-28T18:41:50.691Z,79.45
2018-11-28T18:44:25.707Z,69.60
2018-11-28T18:46:55.752Z,71.35
2018-11-28T18:49:25.684Z,64.90
2018-11-28T18:51:59.459Z,69.75
2018-11-28T18:54:34.255Z,70.57
2018-11-28T18:57:04.283Z,70.20
2018-11-28T18:59:51.759Z,64.92
2018-11-28T19:02:21.679Z,77.37
2018-11-28T19:04:56.455Z,69.07
2018-11-28T19:07:26.357Z,63.85
2018-11-28T19:10:08.861Z,68.83
2018-11-28T19:12:43.151Z,63.95
2018-11-28T19:15:14.743Z,57.55
2018-11-28T19:17:48.631Z,68.55
2018-11-28T19:20:22.012Z,49.80
2018-11-28T19:22:56.666Z,49.95
2018-11-28T19:25:28.055Z,53.98
2018-11-28T19:28:00.692Z,64.05
2018-11-28T19:30:40.997Z,60.65
2018-11-28T19:33:14.276Z,49.38
2018-11-28T19:35:47.680Z,61.95
2018-11-28T19:38:17.551Z,67.47
2018-11-28T19:40:58.919Z,57.55
2018-11-28T19:43:33.143Z,59.10
2018-11-28T19:46:03.075Z,60.10
2018-11-28T19:48:34.051Z,58.55
2018-11-28T19:51:07.263Z,59.08
2018-11-28T19:53:39.264Z,55.28
2018-11-28T19:56:12.499Z,57.35
2018-11-28T19:58:42.411Z,60.30
2018-11-28T20:01:12.288Z,62.15
2018-11-28T20:03:45.187Z,62.30
2018-11-28T20:06:16.155Z,70.47
2018-11-28T20:08:46.043Z,55.80
2018-11-28T20:11:19.611Z,50.85
2018-11-28T20:13:49.508Z,67.55
2018-11-28T20:16:19.464Z,67.15
2018-11-28T20:18:50.435Z,69.65
2018-11-28T20:21:20.344Z,71.90
2018-11-28T20:23:50.245Z,71.62
2018-11-28T20:26:20.144Z,65.20
2018-11-28T20:28:50.029Z,66.28
2018-11-28T20:31:19.883Z,57.00
2018-11-28T20:33:49.703Z,63.42
2018-11-28T20:36:19.787Z,57.35
2018-11-28T20:38:51.643Z,52.05
2018-11-28T20:41:21.988Z,56.00
2018-11-28T20:43:52.557Z,58.25
2018-11-28T20:46:22.759Z,47.73
2018-11-28T20:48:57.411Z,62.08
2018-11-28T20:51:28.244Z,59.13
2018-11-28T20:53:58.215Z,55.85
2018-11-28T20:56:28.115Z,69.82
2018-11-28T20:58:58.659Z,56.60
2018-11-28T21:01:30.475Z,66.40
2018-11-28T21:04:04.455Z,65.28
2018-11-28T21:06:36.384Z,58.52
2018-11-28T21:09:11.944Z,56.48
2018-11-28T21:11:42.783Z,57.65
2018-11-28T21:14:12.687Z,61.13
2018-11-28T21:16:42.670Z,52.62
2018-11-28T21:19:13.515Z,60.48
2018-11-28T21:21:45.367Z,60.28
2018-11-28T21:24:16.155Z,63.63
2018-11-28T21:26:50.219Z,60.75
2018-11-28T21:29:22.071Z,54.42
2018-11-28T21:31:52.003Z,61.95
2018-11-28T21:34:22.955Z,63.02
2018-11-28T21:36:52.848Z,59.75
2018-11-28T21:39:23.929Z,58.68
2018-11-28T21:41:53.915Z,64.72
2018-11-28T21:44:23.907Z,53.52
2018-11-28T21:46:55.207Z,59.67
2018-11-28T21:49:26.014Z,54.45
2018-11-28T21:51:55.917Z,61.92
2018-11-28T21:54:26.791Z,56.65
2018-11-28T21:57:01.404Z,50.33
2018-11-28T21:59:37.147Z,54.03
2018-11-28T22:02:08.991Z,61.88
2018-11-28T22:04:38.824Z,55.85
2018-11-28T22:07:08.735Z,60.65
2018-11-28T22:09:39.683Z,51.42
2018-11-28T22:12:09.577Z,41.48
2018-11-28T22:14:40.547Z,46.88
2018-11-28T22:17:10.476Z,47.95
2018-11-28T22:19:42.323Z,53.50
2018-11-28T22:22:15.594Z,52.83
2018-11-28T22:24:45.523Z,49.38
2018-11-28T22:27:15.457Z,48.50
2018-11-28T22:29:49.088Z,52.20
2018-11-28T22:32:18.936Z,45.50
2018-11-28T22:34:48.848Z,41.95
2018-11-28T22:37:19.776Z,48.95
2018-11-28T22:39:52.668Z,42.43
2018-11-28T22:42:23.768Z,51.10
2018-11-28T22:44:55.732Z,45.00
2018-11-28T22:47:25.701Z,44.95
2018-11-28T22:50:10.459Z,46.45
2018-11-28T22:52:46.600Z,51.00
2018-11-28T22:55:18.043Z,49.50
2018-11-28T22:57:49.900Z,52.85
2018-11-28T23:00:30.436Z,43.02
2018-11-28T23:03:05.368Z,51.85
2018-11-28T23:05:51.476Z,47.60
2018-11-28T23:08:24.816Z,41.15
2018-11-28T23:10:59.835Z,45.23
2018-11-28T23:13:32.825Z,45.67
2018-11-28T23:16:03.092Z,46.48
2018-11-28T23:18:33.043Z,42.40
2018-11-28T23:21:02.947Z,48.10
2018-11-28T23:23:32.900Z,54.35
2018-11-28T23:26:04.927Z,50.30
2018-11-28T23:28:34.840Z,54.05
2018-11-28T23:31:10.487Z,54.20
2018-11-28T23:33:40.439Z,53.02
2018-11-28T23:36:12.415Z,49.55
2018-11-28T23:38:45.475Z,62.25
2018-11-28T23:41:17.442Z,47.20
2018-11-28T23:43:51.024Z,51.58
2018-11-28T23:46:20.980Z,56.02
2018-11-28T23:48:50.891Z,49.77
2018-11-28T23:51:22.859Z,51.42
2018-11-28T23:53:53.051Z,47.58
2018-11-28T23:56:22.995Z,56.02
2018-11-28T23:58:56.463Z,56.30
